createdAt,value
2023-05-07T00:01:23.792Z,94345.44
2023-05-07T00:03:50.754Z,94343.38
2023-05-07T00:06:18.212Z,94349.97
2023-05-07T00:08:44.916Z,94341.19
2023-05-07T00:11:11.639Z,94347.19
2023-05-07T00:13:38.290Z,94341.66
2023-05-07T00:16:05.817Z,94341.44
2023-05-07T00:18:32.497Z,94335.91
2023-05-07T00:20:59.268Z,94330.28
2023-05-07T00:23:25.863Z,94325.13
2023-05-07T00:25:52.573Z,94329.75
2023-05-07T00:28:19.186Z,94339.56
2023-05-07T00:30:45.848Z,94338.25
2023-05-07T00:33:12.573Z,94334.56
2023-05-07T00:35:39.468Z,94330.34
2023-05-07T00:38:06.123Z,94335.72
2023-05-07T00:40:34.006Z,94330.81
2023-05-07T00:43:01.021Z,94332.44
2023-05-07T00:45:29.487Z,94335.16
2023-05-07T00:48:02.153Z,94344.56
2023-05-07T00:50:29.656Z,94339.75
2023-05-07T00:52:56.816Z,94341.31
2023-05-07T00:55:24.870Z,94337.34
2023-05-07T00:57:52.295Z,94343.00
2023-05-07T01:00:19.656Z,94343.03
2023-05-07T01:02:47.735Z,94346.97
2023-05-07T01:05:18.485Z,94350.66
2023-05-07T01:07:46.643Z,94346.84
2023-05-07T01:10:13.990Z,94342.50
2023-05-07T01:12:41.656Z,94337.28
2023-05-07T01:15:10.514Z,94336.03
2023-05-07T01:17:38.976Z,94343.28
2023-05-07T01:20:08.366Z,94341.28
2023-05-07T01:22:37.697Z,94336.59
2023-05-07T01:25:05.591Z,94344.78
2023-05-07T01:27:34.255Z,94341.91
2023-05-07T01:30:00.999Z,94343.47
2023-05-07T01:32:36.947Z,94345.97
2023-05-07T01:35:06.277Z,94349.91
2023-05-07T01:37:33.817Z,94343.88
2023-05-07T01:40:02.137Z,94339.16
2023-05-07T01:42:30.306Z,94332.25
2023-05-07T01:44:57.400Z,94329.34
2023-05-07T01:47:25.219Z,94329.00
2023-05-07T01:49:52.044Z,94325.59
2023-05-07T01:52:18.808Z,94324.81
2023-05-07T01:54:45.680Z,94319.66
2023-05-07T01:57:12.364Z,94309.84
2023-05-07T01:59:39.040Z,94318.56
2023-05-07T02:02:05.934Z,94307.94
2023-05-07T02:04:32.577Z,94319.84
2023-05-07T02:06:59.208Z,94312.91
2023-05-07T02:09:25.851Z,94316.69
2023-05-07T02:11:52.433Z,94313.34
2023-05-07T02:14:19.227Z,94306.81
2023-05-07T02:16:45.994Z,94305.81
2023-05-07T02:19:12.788Z,94304.13
2023-05-07T02:21:39.404Z,94294.28
2023-05-07T02:24:06.284Z,94303.63
2023-05-07T02:26:33.073Z,94290.72
2023-05-07T02:28:59.641Z,94299.25
2023-05-07T02:31:26.316Z,94305.44
2023-05-07T02:33:52.946Z,94304.78
2023-05-07T02:36:19.610Z,94296.94
2023-05-07T02:38:46.243Z,94305.47
2023-05-07T02:41:12.856Z,94308.91
2023-05-07T02:43:39.492Z,94304.19
2023-05-07T02:46:08.205Z,94305.81
2023-05-07T02:48:35.471Z,94306.81
2023-05-07T02:51:03.334Z,94306.75
2023-05-07T02:53:30.521Z,94307.81
2023-05-07T02:55:58.473Z,94309.47
2023-05-07T02:58:25.600Z,94313.41
2023-05-07T03:00:52.504Z,94307.94
2023-05-07T03:03:19.299Z,94310.97
2023-05-07T03:05:45.917Z,94314.09
2023-05-07T03:08:12.669Z,94324.72
2023-05-07T03:10:39.385Z,94320.88
2023-05-07T03:13:06.441Z,94327.53
2023-05-07T03:15:33.128Z,94326.59
2023-05-07T03:17:59.997Z,94332.09
2023-05-07T03:20:26.728Z,94322.19
2023-05-07T03:22:53.433Z,94327.31
2023-05-07T03:25:20.252Z,94330.88
2023-05-07T03:27:46.856Z,94325.88
2023-05-07T03:30:13.862Z,94329.78
2023-05-07T03:32:40.792Z,94328.94
2023-05-07T03:35:08.186Z,94329.56
2023-05-07T03:37:34.916Z,94335.13
2023-05-07T03:40:01.572Z,94343.59
2023-05-07T03:42:29.562Z,94341.88
2023-05-07T03:44:56.195Z,94342.19
2023-05-07T03:47:22.911Z,94340.09
2023-05-07T03:49:50.324Z,94343.28
2023-05-07T03:52:17.189Z,94345.13
2023-05-07T03:54:43.826Z,94346.53
2023-05-07T03:57:10.467Z,94342.94
2023-05-07T03:59:37.154Z,94338.75
2023-05-07T04:02:05.614Z,94347.75
2023-05-07T04:04:34.037Z,94355.13
2023-05-07T04:07:01.522Z,94360.72
2023-05-07T04:09:28.174Z,94363.06
2023-05-07T04:11:54.852Z,94370.00
2023-05-07T04:14:21.483Z,94384.78
2023-05-07T04:16:48.196Z,94377.91
2023-05-07T04:19:14.923Z,94384.38
2023-05-07T04:21:41.684Z,94381.53
2023-05-07T04:24:08.482Z,94383.38
2023-05-07T04:26:35.168Z,94386.41
2023-05-07T04:29:01.976Z,94390.34
2023-05-07T04:31:28.646Z,94389.38
2023-05-07T04:33:55.562Z,94395.91
2023-05-07T04:36:22.522Z,94396.63
2023-05-07T04:38:49.138Z,94403.50
2023-05-07T04:41:16.200Z,94400.06
2023-05-07T04:43:42.821Z,94397.94
2023-05-07T04:46:09.577Z,94411.63
2023-05-07T04:48:36.301Z,94415.72
2023-05-07T04:51:03.450Z,94405.38
2023-05-07T04:53:30.074Z,94400.66
2023-05-07T04:56:00.555Z,94401.44
2023-05-07T04:58:27.282Z,94396.59
2023-05-07T05:00:53.947Z,94397.81
2023-05-07T05:03:20.614Z,94395.16
2023-05-07T05:05:47.364Z,94385.88
2023-05-07T05:08:14.017Z,94398.19
2023-05-07T05:10:42.687Z,94397.06
2023-05-07T05:13:09.302Z,94389.84
2023-05-07T05:15:36.237Z,94393.56
2023-05-07T05:18:02.985Z,94394.53
2023-05-07T05:20:29.620Z,94385.22
2023-05-07T05:22:56.236Z,94395.25
2023-05-07T05:25:22.905Z,94390.13
2023-05-07T05:27:49.645Z,94393.25
2023-05-07T05:30:16.224Z,94395.47
2023-05-07T05:32:42.882Z,94405.09
2023-05-07T05:35:09.800Z,94394.56
2023-05-07T05:37:36.528Z,94398.09
2023-05-07T05:40:03.367Z,94400.25
2023-05-07T05:42:29.985Z,94402.50
2023-05-07T05:44:56.632Z,94407.25
2023-05-07T05:47:24.115Z,94393.00
2023-05-07T05:49:50.846Z,94401.72
2023-05-07T05:52:18.421Z,94393.69
2023-05-07T05:54:45.007Z,94397.78
2023-05-07T05:57:11.851Z,94399.84
2023-05-07T05:59:38.556Z,94409.19
2023-05-07T06:02:05.215Z,94403.44
2023-05-07T06:04:31.922Z,94396.66
2023-05-07T06:06:58.626Z,94399.09
2023-05-07T06:09:25.244Z,94403.06
2023-05-07T06:11:52.126Z,94404.66
2023-05-07T06:14:18.787Z,94401.41
2023-05-07T06:16:45.900Z,94396.66
2023-05-07T06:19:12.572Z,94396.75
2023-05-07T06:21:40.348Z,94400.09
2023-05-07T06:24:07.350Z,94400.56
2023-05-07T06:26:33.996Z,94405.25
2023-05-07T06:29:00.680Z,94391.50
2023-05-07T06:31:32.071Z,94393.34
2023-05-07T06:33:59.987Z,94384.50
2023-05-07T06:36:27.500Z,94384.38
2023-05-07T06:38:54.198Z,94384.97
2023-05-07T06:41:21.638Z,94387.16
2023-05-07T06:43:48.248Z,94373.09
2023-05-07T06:46:14.936Z,94377.22
2023-05-07T06:48:41.578Z,94378.97
2023-05-07T06:51:08.277Z,94373.41
2023-05-07T06:53:36.542Z,94368.09
2023-05-07T06:56:03.287Z,94369.25
2023-05-07T06:58:31.169Z,94366.28
2023-05-07T07:00:57.790Z,94367.81
2023-05-07T07:03:24.494Z,94371.25
2023-05-07T07:05:55.133Z,94372.56
2023-05-07T07:08:23.018Z,94373.50
2023-05-07T07:10:49.694Z,94371.53
2023-05-07T07:13:16.663Z,94373.16
2023-05-07T07:15:44.620Z,94369.47
2023-05-07T07:18:11.372Z,94367.97
2023-05-07T07:20:38.124Z,94369.50
2023-05-07T07:23:04.820Z,94366.41
2023-05-07T07:25:31.695Z,94365.47
2023-05-07T07:27:58.616Z,94363.31
2023-05-07T07:30:27.222Z,94363.34
2023-05-07T07:32:54.262Z,94361.97
2023-05-07T07:35:20.938Z,94365.28
2023-05-07T07:37:49.311Z,94360.66
2023-05-07T07:40:15.987Z,94366.41
2023-05-07T07:42:42.612Z,94371.81
2023-05-07T07:45:09.671Z,94373.38
2023-05-07T07:47:36.386Z,94368.00
2023-05-07T07:50:03.085Z,94380.34
2023-05-07T07:52:29.796Z,94376.13
2023-05-07T07:54:56.405Z,94378.81
2023-05-07T07:57:23.063Z,94371.81
2023-05-07T07:59:50.187Z,94369.53
2023-05-07T08:02:17.276Z,94370.31
2023-05-07T08:04:46.656Z,94373.41
2023-05-07T08:07:14.173Z,94371.13
2023-05-07T08:09:41.864Z,94367.97
2023-05-07T08:12:08.691Z,94368.00
2023-05-07T08:14:37.487Z,94366.78
2023-05-07T08:17:04.422Z,94365.31
2023-05-07T08:19:31.117Z,94363.94
2023-05-07T08:21:57.786Z,94353.22
2023-05-07T08:24:24.445Z,94355.56
2023-05-07T08:26:51.101Z,94355.03
2023-05-07T08:29:17.768Z,94353.63
2023-05-07T08:31:44.377Z,94355.50
2023-05-07T08:34:11.085Z,94356.72
2023-05-07T08:36:37.729Z,94351.34
2023-05-07T08:39:04.528Z,94349.75
2023-05-07T08:41:31.748Z,94340.97
2023-05-07T08:44:02.186Z,94342.19
2023-05-07T08:46:33.334Z,94350.31
2023-05-07T08:49:00.154Z,94339.00
2023-05-07T08:51:26.864Z,94345.97
2023-05-07T08:53:53.539Z,94341.25
2023-05-07T08:56:22.374Z,94334.22
2023-05-07T08:58:49.778Z,94331.28
2023-05-07T09:01:17.991Z,94331.94
2023-05-07T09:03:47.995Z,94328.94
2023-05-07T09:06:15.218Z,94335.91
2023-05-07T09:08:41.843Z,94328.47
2023-05-07T09:11:08.550Z,94326.66
2023-05-07T09:13:35.334Z,94321.34
2023-05-07T09:16:12.739Z,94318.13
2023-05-07T09:18:43.457Z,94310.19
2023-05-07T09:21:17.218Z,94318.22
2023-05-07T09:23:44.071Z,94319.03
2023-05-07T09:26:12.959Z,94319.78
2023-05-07T09:28:43.169Z,94314.31
2023-05-07T09:31:11.250Z,94303.00
2023-05-07T09:33:38.570Z,94310.56
2023-05-07T09:36:10.221Z,94308.00
2023-05-07T09:38:38.323Z,94305.41
2023-05-07T09:41:13.214Z,94301.16
2023-05-07T09:43:41.458Z,94304.84
2023-05-07T09:46:15.857Z,94300.22
2023-05-07T09:48:44.739Z,94302.69
2023-05-07T09:51:19.260Z,94296.81
2023-05-07T09:53:47.271Z,94301.69
2023-05-07T09:56:16.347Z,94291.25
2023-05-07T09:58:44.365Z,94297.47
2023-05-07T10:01:13.115Z,94299.19
2023-05-07T10:03:43.590Z,94292.84
2023-05-07T10:06:11.710Z,94291.03
2023-05-07T10:08:38.861Z,94295.19
2023-05-07T10:11:06.998Z,94290.38
2023-05-07T10:13:37.637Z,94290.16
2023-05-07T10:16:07.652Z,94291.78
2023-05-07T10:18:34.920Z,94289.94
2023-05-07T10:21:49.288Z,94271.56
2023-05-07T10:24:23.242Z,94275.50
2023-05-07T10:26:53.625Z,94275.50
2023-05-07T10:29:31.098Z,94274.44
2023-05-07T10:32:22.880Z,94263.19
2023-05-07T10:34:54.542Z,94265.53
2023-05-07T10:37:21.294Z,94258.00
2023-05-07T10:39:48.319Z,94256.75
2023-05-07T10:42:15.923Z,94257.75
2023-05-07T10:44:42.555Z,94255.47
2023-05-07T10:47:14.375Z,94257.56
2023-05-07T10:49:46.885Z,94257.34
2023-05-07T10:52:18.820Z,94255.19
2023-05-07T10:54:46.530Z,94246.88
2023-05-07T10:57:36.844Z,94247.50
2023-05-07T11:00:39.028Z,94241.84
2023-05-07T11:03:07.940Z,94243.91
2023-05-07T11:05:37.595Z,94235.72
2023-05-07T11:08:06.409Z,94249.06
2023-05-07T11:10:51.435Z,94241.16
2023-05-07T11:13:19.147Z,94235.84
2023-05-07T11:15:49.623Z,94233.75
2023-05-07T11:18:18.104Z,94233.81
2023-05-07T11:20:59.104Z,94228.53
2023-05-07T11:23:34.638Z,94226.69
2023-05-07T11:26:12.315Z,94221.34
2023-05-07T11:28:40.340Z,94223.63
2023-05-07T11:31:07.580Z,94218.88
2023-05-07T11:33:35.569Z,94225.66
2023-05-07T11:36:04.620Z,94223.69
2023-05-07T11:38:35.805Z,94221.34
2023-05-07T11:41:03.527Z,94229.59
2023-05-07T11:43:30.155Z,94217.34
2023-05-07T11:46:06.727Z,94212.78
2023-05-07T11:48:33.505Z,94215.19
2023-05-07T11:51:00.046Z,94212.72
2023-05-07T11:53:27.883Z,94211.66
2023-05-07T11:55:56.521Z,94209.75
2023-05-07T11:58:25.010Z,94205.28
2023-05-07T12:00:52.601Z,94208.84
2023-05-07T12:03:19.566Z,94199.03
2023-05-07T12:05:49.293Z,94200.28
2023-05-07T12:08:19.868Z,94199.72
2023-05-07T12:10:51.254Z,94198.81
2023-05-07T12:13:19.355Z,94197.88
2023-05-07T12:15:46.399Z,94200.72
2023-05-07T12:18:13.742Z,94191.38
2023-05-07T12:20:40.980Z,94187.47
2023-05-07T12:23:08.117Z,94186.00
2023-05-07T12:25:39.211Z,94174.50
2023-05-07T12:28:07.087Z,94176.03
2023-05-07T12:30:38.298Z,94169.09
2023-05-07T12:33:04.953Z,94167.94
2023-05-07T12:35:33.145Z,94177.81
2023-05-07T12:38:05.153Z,94161.13
2023-05-07T12:40:54.498Z,94167.34
2023-05-07T12:43:28.861Z,94158.81
2023-05-07T12:45:58.238Z,94156.16
2023-05-07T12:48:27.981Z,94149.13
2023-05-07T12:50:56.006Z,94146.16
2023-05-07T12:53:25.740Z,94143.00
2023-05-07T12:55:54.713Z,94146.66
2023-05-07T12:58:29.655Z,94141.09
2023-05-07T13:01:00.899Z,94137.72
2023-05-07T13:03:30.867Z,94135.31
2023-05-07T13:06:00.618Z,94138.38
2023-05-07T13:08:30.371Z,94143.53
2023-05-07T13:10:59.202Z,94125.06
2023-05-07T13:13:26.290Z,94130.00
2023-05-07T13:15:53.130Z,94133.66
2023-05-07T13:18:19.858Z,94125.97
2023-05-07T13:20:46.731Z,94121.94
2023-05-07T13:23:13.533Z,94126.75
2023-05-07T13:25:40.212Z,94123.69
2023-05-07T13:28:11.218Z,94122.00
2023-05-07T13:30:38.468Z,94112.53
2023-05-07T13:33:05.214Z,94112.69
2023-05-07T13:35:31.964Z,94112.03
2023-05-07T13:37:58.671Z,94124.97
2023-05-07T13:40:25.996Z,94123.75
2023-05-07T13:42:52.962Z,94117.41
2023-05-07T13:45:19.920Z,94113.78
2023-05-07T13:47:47.688Z,94122.00
2023-05-07T13:50:17.180Z,94117.00
2023-05-07T13:52:51.469Z,94114.84
2023-05-07T13:55:19.161Z,94124.81
2023-05-07T13:57:46.337Z,94122.75
2023-05-07T14:00:14.063Z,94123.34
2023-05-07T14:05:08.648Z,94129.22
2023-05-07T14:07:35.593Z,94140.88
2023-05-07T14:10:02.404Z,94124.44
2023-05-07T14:12:29.044Z,94126.38
2023-05-07T14:14:55.965Z,94129.59
2023-05-07T14:17:24.218Z,94130.44
2023-05-07T14:19:51.052Z,94128.56
2023-05-07T14:22:17.687Z,94128.66
2023-05-07T14:24:46.724Z,94130.50
2023-05-07T14:27:15.421Z,94123.91
2023-05-07T14:29:43.601Z,94124.44
2023-05-07T14:32:10.233Z,94121.59
2023-05-07T14:34:36.896Z,94112.63
2023-05-07T14:37:04.323Z,94113.13
2023-05-07T14:39:31.032Z,94109.59
2023-05-07T14:41:58.461Z,94117.69
2023-05-07T14:44:25.103Z,94107.94
2023-05-07T14:46:52.225Z,94102.91
2023-05-07T14:49:18.822Z,94102.03
2023-05-07T14:51:46.569Z,94097.44
2023-05-07T14:54:14.626Z,94103.34
2023-05-07T14:56:42.082Z,94096.56
2023-05-07T14:59:09.395Z,94098.94
2023-05-07T15:01:37.276Z,94100.19
2023-05-07T15:04:07.293Z,94104.97
2023-05-07T15:06:34.479Z,94103.66
2023-05-07T15:09:01.156Z,94109.78
2023-05-07T15:11:27.851Z,94108.25
2023-05-07T15:13:54.415Z,94109.06
2023-05-07T15:16:21.461Z,94110.03
2023-05-07T15:18:48.225Z,94108.47
2023-05-07T15:21:14.936Z,94106.31
2023-05-07T15:23:42.460Z,94107.19
2023-05-07T15:26:09.284Z,94111.34
2023-05-07T15:28:36.104Z,94103.94
2023-05-07T15:31:02.888Z,94110.66
2023-05-07T15:33:29.574Z,94101.13
2023-05-07T15:35:59.817Z,94101.22
2023-05-07T15:38:27.238Z,94104.53
2023-05-07T15:40:54.124Z,94099.34
2023-05-07T15:43:20.836Z,94096.41
2023-05-07T15:45:47.503Z,94093.94
2023-05-07T15:48:14.175Z,94093.34
2023-05-07T15:50:40.845Z,94088.06
2023-05-07T15:53:09.083Z,94090.38
2023-05-07T15:55:35.864Z,94091.28
2023-05-07T15:58:04.681Z,94083.59
2023-05-07T16:00:31.244Z,94081.84
2023-05-07T16:02:58.085Z,94078.03
2023-05-07T16:05:25.008Z,94081.75
2023-05-07T16:07:51.684Z,94079.97
2023-05-07T16:10:18.588Z,94088.81
2023-05-07T16:12:45.261Z,94086.09
2023-05-07T16:15:12.482Z,94080.75
2023-05-07T16:17:39.432Z,94077.00
2023-05-07T16:20:06.717Z,94080.25
2023-05-07T16:22:33.431Z,94086.41
2023-05-07T16:25:02.051Z,94072.72
2023-05-07T16:27:28.632Z,94081.16
2023-05-07T16:29:55.230Z,94074.78
2023-05-07T16:32:21.849Z,94072.81
2023-05-07T16:34:48.611Z,94066.03
2023-05-07T16:37:15.247Z,94082.47
2023-05-07T16:39:41.828Z,94075.03
2023-05-07T16:42:08.434Z,94075.41
2023-05-07T16:44:35.022Z,94080.94
2023-05-07T16:47:01.911Z,94078.13
2023-05-07T16:49:28.505Z,94092.09
2023-05-07T16:51:55.136Z,94093.06
2023-05-07T16:54:22.011Z,94098.78
2023-05-07T16:56:48.808Z,94102.38
2023-05-07T16:59:15.498Z,94103.03
2023-05-07T17:01:42.886Z,94102.75
2023-05-07T17:04:09.851Z,94114.13
2023-05-07T17:06:36.697Z,94108.59
2023-05-07T17:09:03.671Z,94113.97
2023-05-07T17:11:31.788Z,94123.00
2023-05-07T17:13:58.478Z,94131.72
2023-05-07T17:16:25.408Z,94134.28
2023-05-07T17:18:52.389Z,94129.28
2023-05-07T17:21:19.178Z,94129.28
2023-05-07T17:23:45.809Z,94129.13
2023-05-07T17:26:15.414Z,94134.16
2023-05-07T17:28:42.339Z,94140.72
2023-05-07T17:31:09.037Z,94142.28
2023-05-07T17:33:36.592Z,94143.22
2023-05-07T17:36:03.462Z,94142.19
2023-05-07T17:38:31.488Z,94145.06
2023-05-07T17:40:58.700Z,94140.09
2023-05-07T17:43:25.377Z,94145.31
2023-05-07T17:45:52.144Z,94139.69
2023-05-07T17:48:19.098Z,94139.50
2023-05-07T17:50:45.750Z,94143.47
2023-05-07T17:53:12.556Z,94141.97
2023-05-07T17:55:45.965Z,94140.25
2023-05-07T17:58:12.919Z,94139.91
2023-05-07T18:00:39.554Z,94137.63
2023-05-07T18:03:06.404Z,94138.69
2023-05-07T18:05:36.755Z,94145.78
2023-05-07T18:08:03.676Z,94139.69
2023-05-07T18:10:30.349Z,94139.63
2023-05-07T18:12:57.123Z,94144.47
2023-05-07T18:15:24.014Z,94151.31
2023-05-07T18:17:50.773Z,94161.00
2023-05-07T18:20:17.606Z,94163.88
2023-05-07T18:22:44.188Z,94162.75
2023-05-07T18:25:10.860Z,94163.66
2023-05-07T18:27:37.439Z,94176.69
2023-05-07T18:30:04.414Z,94177.53
2023-05-07T18:32:31.058Z,94180.44
2023-05-07T18:34:57.781Z,94192.91
2023-05-07T18:37:26.108Z,94187.53
2023-05-07T18:39:53.507Z,94192.81
2023-05-07T18:42:20.240Z,94203.09
2023-05-07T18:44:46.952Z,94205.69
2023-05-07T18:47:13.942Z,94203.75
2023-05-07T18:49:40.664Z,94212.59
2023-05-07T18:52:07.262Z,94210.69
2023-05-07T18:54:33.972Z,94212.69
2023-05-07T18:57:00.632Z,94214.34
2023-05-07T18:59:27.315Z,94215.81
2023-05-07T19:01:53.992Z,94215.19
2023-05-07T19:04:20.898Z,94223.13
2023-05-07T19:06:47.632Z,94219.31
2023-05-07T19:09:14.653Z,94216.97
2023-05-07T19:11:41.460Z,94223.91
2023-05-07T19:14:08.257Z,94222.53
2023-05-07T19:16:35.123Z,94220.56
2023-05-07T19:19:01.880Z,94227.88
2023-05-07T19:21:28.762Z,94226.34
2023-05-07T19:23:57.429Z,94226.50
2023-05-07T19:26:24.532Z,94233.47
2023-05-07T19:29:06.526Z,94232.97
2023-05-07T19:31:38.739Z,94233.22
2023-05-07T19:34:05.506Z,94232.38
2023-05-07T19:36:34.351Z,94241.59
2023-05-07T19:39:02.063Z,94242.88
2023-05-07T19:41:29.212Z,94241.09
2023-05-07T19:43:55.998Z,94246.28
2023-05-07T19:46:22.750Z,94244.69
2023-05-07T19:48:49.513Z,94248.50
2023-05-07T19:51:16.162Z,94239.13
2023-05-07T19:53:44.919Z,94241.44
2023-05-07T19:56:12.677Z,94249.22
2023-05-07T19:58:39.483Z,94244.59
2023-05-07T20:01:06.807Z,94240.78
2023-05-07T20:03:34.526Z,94257.81
2023-05-07T20:06:01.447Z,94249.28
2023-05-07T20:08:28.641Z,94247.72
2023-05-07T20:10:58.190Z,94245.47
2023-05-07T20:13:25.001Z,94257.84
2023-05-07T20:15:51.663Z,94256.28
2023-05-07T20:18:18.353Z,94254.69
2023-05-07T20:20:45.463Z,94262.16
2023-05-07T20:23:12.128Z,94271.91
2023-05-07T20:25:41.588Z,94271.50
2023-05-07T20:28:08.196Z,94266.44
2023-05-07T20:30:34.937Z,94265.66
2023-05-07T20:33:03.970Z,94266.50
2023-05-07T20:35:32.249Z,94267.25
2023-05-07T20:37:58.957Z,94272.66
2023-05-07T20:40:25.668Z,94282.13
2023-05-07T20:42:52.273Z,94286.88
2023-05-07T20:45:19.169Z,94275.69
2023-05-07T20:47:45.863Z,94278.41
2023-05-07T20:50:12.858Z,94279.53
2023-05-07T20:52:39.975Z,94278.34
2023-05-07T20:55:07.211Z,94287.59
2023-05-07T20:57:34.234Z,94283.69
2023-05-07T21:00:00.869Z,94281.34
2023-05-07T21:02:27.523Z,94283.28
2023-05-07T21:04:54.469Z,94284.44
2023-05-07T21:07:21.049Z,94280.94
2023-05-07T21:09:47.645Z,94289.81
2023-05-07T21:12:14.319Z,94296.81
2023-05-07T21:14:41.099Z,94296.53
2023-05-07T21:17:08.212Z,94286.84
2023-05-07T21:19:35.083Z,94293.00
2023-05-07T21:22:01.733Z,94293.00
2023-05-07T21:24:28.420Z,94286.03
2023-05-07T21:26:56.176Z,94297.25
2023-05-07T21:29:23.652Z,94291.47
2023-05-07T21:31:50.340Z,94297.63
2023-05-07T21:34:17.021Z,94296.81
2023-05-07T21:36:43.904Z,94301.88
2023-05-07T21:39:11.060Z,94306.94
2023-05-07T21:41:37.892Z,94303.06
2023-05-07T21:44:05.113Z,94313.53
2023-05-07T21:46:31.778Z,94304.66
2023-05-07T21:48:58.438Z,94303.47
2023-05-07T21:51:25.151Z,94306.94
2023-05-07T21:53:51.836Z,94316.63
2023-05-07T21:56:18.621Z,94315.84
2023-05-07T21:58:45.296Z,94310.81
2023-05-07T22:01:13.043Z,94312.38
2023-05-07T22:03:41.208Z,94309.69
2023-05-07T22:06:08.003Z,94316.63
2023-05-07T22:08:34.705Z,94315.47
2023-05-07T22:11:01.389Z,94318.91
2023-05-07T22:13:28.338Z,94325.47
2023-05-07T22:15:58.091Z,94321.63
2023-05-07T22:18:26.100Z,94329.75
2023-05-07T22:20:52.958Z,94331.66
2023-05-07T22:23:19.676Z,94323.09
2023-05-07T22:25:46.431Z,94328.16
2023-05-07T22:28:13.109Z,94326.06
2023-05-07T22:30:40.207Z,94328.44
2023-05-07T22:33:07.059Z,94324.13
2023-05-07T22:35:33.800Z,94321.78
2023-05-07T22:38:00.495Z,94329.59
2023-05-07T22:40:27.388Z,94327.75
2023-05-07T22:42:54.012Z,94327.00
2023-05-07T22:45:20.844Z,94325.00
2023-05-07T22:47:48.407Z,94320.06
2023-05-07T22:50:15.518Z,94330.75
2023-05-07T22:52:42.226Z,94325.00
2023-05-07T22:55:09.093Z,94334.97
2023-05-07T22:57:35.799Z,94322.63
2023-05-07T23:00:02.661Z,94319.56
2023-05-07T23:02:29.620Z,94322.66
2023-05-07T23:04:59.944Z,94327.69
2023-05-07T23:07:27.087Z,94326.94
2023-05-07T23:09:53.876Z,94324.66
2023-05-07T23:12:20.539Z,94320.00
2023-05-07T23:14:47.285Z,94320.78
2023-05-07T23:17:14.097Z,94323.44
2023-05-07T23:19:41.055Z,94313.72
2023-05-07T23:22:07.940Z,94313.03
2023-05-07T23:24:34.909Z,94307.19
2023-05-07T23:27:05.622Z,94302.16
2023-05-07T23:29:32.882Z,94305.09
2023-05-07T23:31:59.820Z,94311.72
2023-05-07T23:34:26.926Z,94295.19
2023-05-07T23:36:54.039Z,94302.16
2023-05-07T23:39:20.933Z,94298.38
2023-05-07T23:41:47.560Z,94283.66
2023-05-07T23:44:16.545Z,94289.78
2023-05-07T23:46:44.582Z,94284.78
2023-05-07T23:49:11.559Z,94280.97
2023-05-07T23:51:38.299Z,94280.22
2023-05-07T23:54:05.246Z,94282.13
2023-05-07T23:56:31.974Z,94282.13
2023-05-07T23:58:58.669Z,94277.47
